createdAt,value
2022-08-01T00:02:11.816Z,22.36
2022-08-01T00:07:13.727Z,22.45
2022-08-01T00:12:15.318Z,22.39
2022-08-01T00:17:17.069Z,22.25
2022-08-01T00:22:18.721Z,22.17
2022-08-01T00:27:20.354Z,22.22
2022-08-01T00:32:22.173Z,22.16
2022-08-01T00:37:23.811Z,22.10
2022-08-01T00:42:25.472Z,22.14
2022-08-01T00:47:27.089Z,22.11
2022-08-01T00:52:28.693Z,22.03
2022-08-01T00:58:02.426Z,22.05
2022-08-01T01:02:52.764Z,21.86
2022-08-01T01:08:00.371Z,21.60
2022-08-01T01:13:20.327Z,21.59
2022-08-01T01:18:25.762Z,21.41
2022-08-01T01:23:51.281Z,21.45
2022-08-01T01:29:04.999Z,21.31
2022-08-01T01:34:07.549Z,21.38
2022-08-01T01:39:09.566Z,21.51
2022-08-01T01:44:12.064Z,21.61
2022-08-01T01:49:14.773Z,21.64
2022-08-01T01:54:16.704Z,21.44
2022-08-01T01:59:25.908Z,21.30
2022-08-01T02:04:29.077Z,21.25
2022-08-01T02:09:33.051Z,21.13
2022-08-01T02:14:38.254Z,21.09
2022-08-01T02:19:40.111Z,21.02
2022-08-01T02:25:06.252Z,21.07
2022-08-01T02:30:09.613Z,21.20
2022-08-01T02:35:18.959Z,21.12
2022-08-01T02:40:21.103Z,21.15
2022-08-01T02:45:25.868Z,21.45
2022-08-01T02:50:30.721Z,21.36
2022-08-01T02:55:34.422Z,21.36
2022-08-01T03:00:37.105Z,21.10
2022-08-01T03:05:41.044Z,21.02
2022-08-01T03:10:45.447Z,21.04
2022-08-01T03:15:48.917Z,21.28
2022-08-01T03:20:52.123Z,21.23
2022-08-01T03:25:54.394Z,21.26
2022-08-01T03:30:56.601Z,21.13
2022-08-01T03:36:01.468Z,21.11
2022-08-01T03:41:09.393Z,21.02
2022-08-01T03:46:18.558Z,21.12
2022-08-01T03:51:23.794Z,21.04
2022-08-01T03:56:26.409Z,21.08
2022-08-01T04:01:30.399Z,21.35
2022-08-01T04:06:32.280Z,21.36
2022-08-01T04:11:35.560Z,21.22
2022-08-01T04:16:38.240Z,21.35
2022-08-01T04:21:39.801Z,21.48
2022-08-01T04:26:44.457Z,21.45
2022-08-01T04:31:49.054Z,21.45
2022-08-01T04:36:53.723Z,21.40
2022-08-01T04:41:59.072Z,21.40
2022-08-01T04:47:04.106Z,21.19
2022-08-01T04:52:07.423Z,21.08
2022-08-01T04:57:10.340Z,21.05
2022-08-01T05:02:19.673Z,20.97
2022-08-01T05:07:21.289Z,20.92
2022-08-01T05:12:22.922Z,20.87
2022-08-01T05:17:24.642Z,20.92
2022-08-01T05:22:26.819Z,20.81
2022-08-01T05:27:28.403Z,20.89
2022-08-01T05:32:32.912Z,21.05
2022-08-01T05:37:34.655Z,21.31
2022-08-01T05:42:36.351Z,21.52
2022-08-01T05:47:38.003Z,21.54
2022-08-01T05:52:44.821Z,21.61
2022-08-01T05:57:46.781Z,21.67
2022-08-01T06:02:48.675Z,21.77
2022-08-01T06:07:50.924Z,21.66
2022-08-01T06:12:53.241Z,21.50
2022-08-01T06:17:55.130Z,21.60
2022-08-01T06:22:56.741Z,21.75
2022-08-01T06:28:02.110Z,21.66
2022-08-01T06:33:04.037Z,21.66
2022-08-01T06:38:05.688Z,21.53
2022-08-01T06:43:07.344Z,21.61
2022-08-01T06:48:09.099Z,21.32
2022-08-01T06:53:10.905Z,20.96
2022-08-01T06:58:12.535Z,20.82
2022-08-01T07:03:14.213Z,20.23
2022-08-01T07:08:15.837Z,20.05
2022-08-01T07:13:24.090Z,19.91
2022-08-01T07:18:38.773Z,19.92
2022-08-01T07:23:45.787Z,19.99
2022-08-01T07:28:47.794Z,20.23
2022-08-01T07:33:49.745Z,20.26
2022-08-01T07:38:51.398Z,20.08
2022-08-01T07:43:57.320Z,20.19
2022-08-01T07:49:01.292Z,20.44
2022-08-01T07:54:03.301Z,20.78
2022-08-01T07:59:05.036Z,21.02
2022-08-01T08:04:07.070Z,21.24
2022-08-01T08:09:08.842Z,21.44
2022-08-01T08:14:11.143Z,21.69
2022-08-01T08:19:13.097Z,22.14
2022-08-01T08:24:20.544Z,22.35
2022-08-01T08:29:30.739Z,22.35
2022-08-01T08:34:33.037Z,22.28
2022-08-01T08:39:42.131Z,22.31
2022-08-01T08:44:44.529Z,22.30
2022-08-01T08:49:47.123Z,22.90
2022-08-01T08:54:52.479Z,23.11
2022-08-01T08:59:55.212Z,23.74
2022-08-01T09:04:57.696Z,24.09
2022-08-01T09:09:59.381Z,23.92
2022-08-01T09:15:01.221Z,23.85
2022-08-01T09:20:02.962Z,23.74
2022-08-01T09:25:13.344Z,24.28
2022-08-01T09:30:23.359Z,24.70
2022-08-01T09:35:45.495Z,25.32
2022-08-01T09:40:55.557Z,25.90
2022-08-01T09:45:58.511Z,25.81
2022-08-01T09:51:04.695Z,26.25
2022-08-01T09:56:12.795Z,26.12
2022-08-01T10:01:14.852Z,25.82
2022-08-01T10:06:24.956Z,25.61
2022-08-01T10:11:36.058Z,25.47
2022-08-01T10:16:39.545Z,25.50
2022-08-01T10:21:53.214Z,25.27
2022-08-01T10:27:08.256Z,25.53
2022-08-01T10:32:11.379Z,25.30
2022-08-01T10:37:14.178Z,24.41
2022-08-01T10:42:18.734Z,23.80
2022-08-01T10:47:51.079Z,23.62
2022-08-01T10:53:23.215Z,23.61
2022-08-01T10:58:42.483Z,23.46
2022-08-01T11:03:59.926Z,23.87
2022-08-01T11:09:16.836Z,25.39
2022-08-01T11:14:26.153Z,26.57
2022-08-01T11:20:07.819Z,26.39
2022-08-01T11:25:09.976Z,27.24
2022-08-01T11:30:15.139Z,27.49
2022-08-01T11:35:18.856Z,28.05
2022-08-01T11:40:25.177Z,27.20
2022-08-01T11:45:48.014Z,25.30
2022-08-01T11:50:54.212Z,24.08
2022-08-01T11:55:56.067Z,24.10
2022-08-01T12:00:59.299Z,23.64
2022-08-01T12:06:01.075Z,23.67
2022-08-01T12:11:04.841Z,23.99
2022-08-01T12:16:09.211Z,24.92
2022-08-01T12:21:11.216Z,25.47
2022-08-01T12:26:29.241Z,24.94
2022-08-01T12:31:37.089Z,25.53
2022-08-01T12:36:39.500Z,25.08
2022-08-01T12:41:44.384Z,25.42
2022-08-01T12:46:46.453Z,25.89
2022-08-01T12:51:57.153Z,25.48
2022-08-01T12:56:59.407Z,25.21
2022-08-01T13:02:09.899Z,25.60
2022-08-01T13:07:11.673Z,25.73
2022-08-01T13:12:14.078Z,25.78
2022-08-01T13:17:31.324Z,25.88
2022-08-01T13:22:38.121Z,25.67
2022-08-01T13:27:39.757Z,26.17
2022-08-01T13:33:01.867Z,26.19
2022-08-01T13:38:03.455Z,26.54
2022-08-01T13:43:05.131Z,26.31
2022-08-01T13:48:12.897Z,26.52
2022-08-01T13:53:20.589Z,26.30
2022-08-01T13:58:22.362Z,26.75
2022-08-01T14:03:33.363Z,26.23
2022-08-01T14:08:35.569Z,26.22
2022-08-01T14:13:45.116Z,26.41
2022-08-01T14:18:48.678Z,26.55
2022-08-01T14:23:50.689Z,26.30
2022-08-01T14:28:52.259Z,25.90
2022-08-01T14:33:53.874Z,25.66
2022-08-01T14:38:55.492Z,25.86
2022-08-01T14:44:02.325Z,26.28
2022-08-01T14:49:04.358Z,25.94
2022-08-01T14:54:06.684Z,25.79
2022-08-01T14:59:20.936Z,25.91
2022-08-01T15:04:23.492Z,25.65
2022-08-01T15:09:25.086Z,25.73
2022-08-01T15:14:45.246Z,25.72
2022-08-01T15:19:48.595Z,25.81
2022-08-01T15:24:56.831Z,25.41
2022-08-01T15:29:59.120Z,25.72
2022-08-01T15:35:01.273Z,25.59
2022-08-01T15:40:03.697Z,25.49
2022-08-01T15:45:05.897Z,25.78
2022-08-01T15:50:07.985Z,25.80
2022-08-01T15:55:09.727Z,26.05
2022-08-01T16:00:13.396Z,26.42
2022-08-01T16:05:17.120Z,26.57
2022-08-01T16:10:22.182Z,25.77
2022-08-01T16:15:36.191Z,25.69
2022-08-01T16:20:45.099Z,25.58
2022-08-01T16:25:47.749Z,25.64
2022-08-01T16:31:12.653Z,25.74
2022-08-01T16:36:16.885Z,25.64
2022-08-01T16:41:19.582Z,25.34
2022-08-01T16:46:26.778Z,25.18
2022-08-01T16:51:28.611Z,25.09
2022-08-01T16:56:34.574Z,25.32
2022-08-01T17:01:58.417Z,25.30
2022-08-01T17:06:58.134Z,25.04
2022-08-01T17:12:00.089Z,25.39
2022-08-01T17:17:01.686Z,25.24
2022-08-01T17:22:03.905Z,25.16
2022-08-01T17:27:09.423Z,24.95
2022-08-01T17:32:14.497Z,24.70
2022-08-01T17:37:16.802Z,24.62
2022-08-01T17:42:18.533Z,24.44
2022-08-01T17:47:48.165Z,24.28
2022-08-01T17:52:46.500Z,24.25
2022-08-01T17:57:48.523Z,24.12
2022-08-01T18:02:50.196Z,24.03
2022-08-01T18:08:00.612Z,23.95
2022-08-01T18:13:04.176Z,23.83
2022-08-01T18:18:08.768Z,23.94
2022-08-01T18:23:11.351Z,23.76
2022-08-01T18:28:29.339Z,23.75
2022-08-01T18:33:35.441Z,23.48
2022-08-01T18:38:37.393Z,23.21
2022-08-01T18:43:46.591Z,23.15
2022-08-01T18:48:48.782Z,23.06
2022-08-01T18:53:52.951Z,23.02
2022-08-01T18:58:55.556Z,23.06
2022-08-01T19:03:58.020Z,22.87
2022-08-01T19:09:02.416Z,22.65
2022-08-01T19:14:04.442Z,22.56
2022-08-01T19:19:09.520Z,22.48
2022-08-01T19:24:17.322Z,22.47
2022-08-01T19:29:46.805Z,22.42
2022-08-01T19:35:12.912Z,22.12
2022-08-01T19:40:26.779Z,22.35
2022-08-01T19:45:29.904Z,22.06
2022-08-01T19:50:33.244Z,21.99
2022-08-01T19:55:39.698Z,21.94
2022-08-01T20:00:42.917Z,21.52
2022-08-01T20:05:45.074Z,21.48
2022-08-01T20:10:47.927Z,21.51
2022-08-01T20:15:52.040Z,21.67
2022-08-01T20:20:54.270Z,21.55
2022-08-01T20:26:00.555Z,21.28
2022-08-01T20:31:05.727Z,21.18
2022-08-01T20:36:12.125Z,21.10
2022-08-01T20:41:27.923Z,21.12
2022-08-01T20:46:29.806Z,20.94
2022-08-01T20:51:31.857Z,20.80
2022-08-01T20:56:43.446Z,20.64
2022-08-01T21:02:17.191Z,20.54
2022-08-01T21:07:24.839Z,20.34
2022-08-01T21:12:30.893Z,20.52
2022-08-01T21:18:07.032Z,20.59
2022-08-01T21:23:27.611Z,20.41
2022-08-01T21:28:29.276Z,20.33
2022-08-01T21:33:31.173Z,20.27
2022-08-01T21:38:33.922Z,20.15
2022-08-01T21:43:37.051Z,19.99
2022-08-01T21:48:39.182Z,19.85
2022-08-01T21:54:18.404Z,20.06
2022-08-01T21:59:32.450Z,19.86
2022-08-01T22:04:48.468Z,19.78
2022-08-01T22:09:50.730Z,19.82
2022-08-01T22:14:55.922Z,19.94
2022-08-01T22:19:58.597Z,19.94
2022-08-01T22:25:00.638Z,19.88
2022-08-01T22:30:05.665Z,19.63
2022-08-01T22:35:12.728Z,19.38
2022-08-01T22:40:14.923Z,19.34
2022-08-01T22:45:19.651Z,19.39
2022-08-01T22:50:36.864Z,19.30
2022-08-01T22:55:58.643Z,19.13
2022-08-01T23:01:02.400Z,19.00
2022-08-01T23:06:10.561Z,19.02
2022-08-01T23:11:12.770Z,18.98
2022-08-01T23:16:17.502Z,18.97
2022-08-01T23:21:19.786Z,19.08
2022-08-01T23:26:23.555Z,18.99
2022-08-01T23:31:57.405Z,19.05
2022-08-01T23:36:48.661Z,18.86
2022-08-01T23:41:58.621Z,18.63
2022-08-01T23:47:01.570Z,18.58
2022-08-01T23:52:04.212Z,18.64
2022-08-01T23:57:05.886Z,18.73
